Time;durP1;ratioP1;P1;durP2;ratioP2;P2;SDS_P1;SDS_P2;PMS_P1;PMS_P2;Temp;Humidity;BMP_temperature;BMP_pressure;BME280_temperature;BME280_humidity;BME280_pressure;Samples;Min_cycle;Max_cycle;Signal;HPM_P1;HPM_P2
2021/03/22 00:01:30;;;;;;;46.38;6.43;;;5.50;99.90;;;;;;5113581;27;20362;-57
2021/03/22 00:03:56;;;;;;;42.67;5.38;;;5.60;99.90;;;;;;5111743;27;20319;-56
2021/03/22 00:06:22;;;;;;;36.67;5.65;;;5.50;99.90;;;;;;5112545;27;20012;-57
2021/03/22 00:08:47;;;;;;;34.95;4.90;;;5.50;99.90;;;;;;5113434;27;20065;-56
2021/03/22 00:11:13;;;;;;;31.83;4.95;;;5.50;99.90;;;;;;5102592;27;20387;-55
2021/03/22 00:13:39;;;;;;;40.30;6.57;;;5.50;99.90;;;;;;5111131;28;20032;-56
2021/03/22 00:16:07;;;;;;;30.42;4.50;;;5.50;99.90;;;;;;5112688;27;20034;-53
2021/03/22 00:18:35;;;;;;;31.73;5.57;;;5.50;99.90;;;;;;5114630;27;20031;-53
2021/03/22 00:21:02;;;;;;;41.42;5.28;;;5.40;99.90;;;;;;5114485;27;20086;-56
2021/03/22 00:23:28;;;;;;;35.97;6.43;;;5.40;99.90;;;;;;5123044;27;20076;-55
2021/03/22 00:25:54;;;;;;;35.83;5.80;;;5.40;99.90;;;;;;5115606;27;20411;-54
2021/03/22 00:28:21;;;;;;;33.03;5.38;;;5.30;99.90;;;;;;5107024;27;20032;-52
2021/03/22 00:30:47;;;;;;;34.90;4.65;;;5.30;99.90;;;;;;5102744;28;20028;-52
2021/03/22 00:33:20;;;;;;;44.67;5.85;;;5.40;99.90;;;;;;5110811;27;20580;-53
2021/03/22 00:35:46;;;;;;;32.00;5.13;;;5.30;99.90;;;;;;5108111;28;20413;-56
2021/03/22 00:38:13;;;;;;;36.30;6.28;;;5.30;99.90;;;;;;5124267;27;20023;-57
2021/03/22 00:40:41;;;;;;;34.53;5.75;;;5.40;99.90;;;;;;5108830;27;20028;-55
2021/03/22 00:43:08;;;;;;;44.97;6.90;;;5.30;99.90;;;;;;5108022;27;20024;-57
2021/03/22 00:45:34;;;;;;;38.78;6.75;;;5.30;99.90;;;;;;5107717;27;20058;-57
2021/03/22 00:48:00;;;;;;;35.83;5.57;;;5.30;99.90;;;;;;5106414;27;20406;-53
2021/03/22 00:50:31;;;;;;;71.68;7.25;;;5.30;99.90;;;;;;5103772;27;20107;-57
2021/03/22 00:52:57;;;;;;;37.63;6.47;;;5.30;99.90;;;;;;5115794;27;20555;-55
2021/03/22 00:55:24;;;;;;;37.67;5.45;;;5.20;99.90;;;;;;5104665;28;20111;-57
2021/03/22 00:57:50;;;;;;;51.10;7.22;;;5.20;99.90;;;;;;5117476;27;20031;-57
2021/03/22 01:00:25;;;;;;;35.78;5.20;;;5.20;99.90;;;;;;5108262;27;20032;-57
2021/03/22 01:02:51;;;;;;;40.45;4.90;;;5.20;99.90;;;;;;5106084;28;20027;-55
2021/03/22 01:05:17;;;;;;;42.05;5.72;;;5.20;99.90;;;;;;5108830;27;20031;-55
2021/03/22 01:07:43;;;;;;;31.95;4.63;;;5.20;99.90;;;;;;5109397;28;20027;-53
2021/03/22 01:10:22;;;;;;;32.15;6.47;;;5.10;99.90;;;;;;5111921;27;20081;-56
2021/03/22 01:12:48;;;;;;;34.35;5.43;;;5.20;99.90;;;;;;5111569;28;20409;-57
2021/03/22 01:15:14;;;;;;;33.50;6.05;;;5.10;99.90;;;;;;5106344;28;20061;-57
2021/03/22 01:17:39;;;;;;;42.88;4.88;;;5.10;99.90;;;;;;5111147;28;20019;-57
2021/03/22 01:20:11;;;;;;;45.22;5.43;;;5.10;99.90;;;;;;5103862;28;20028;-54
2021/03/22 01:22:37;;;;;;;36.17;4.60;;;5.10;99.90;;;;;;5119003;28;20028;-56
2021/03/22 01:25:07;;;;;;;40.40;5.13;;;5.10;99.90;;;;;;5113481;28;20036;-56
2021/03/22 01:27:33;;;;;;;38.33;4.70;;;5.20;99.90;;;;;;5103720;28;20074;-55
2021/03/22 01:29:59;;;;;;;33.03;4.38;;;5.20;99.90;;;;;;5109008;28;20030;-53
2021/03/22 01:32:25;;;;;;;36.78;4.13;;;5.20;99.90;;;;;;5104330;28;20035;-54
2021/03/22 01:34:50;;;;;;;26.60;4.45;;;5.20;99.90;;;;;;5119531;28;20024;-57
2021/03/22 01:37:16;;;;;;;33.50;4.80;;;5.20;99.90;;;;;;5111806;28;20043;-57
2021/03/22 01:39:41;;;;;;;39.53;5.20;;;5.10;99.90;;;;;;5119065;28;20031;-56
2021/03/22 01:42:32;;;;;;;42.60;6.05;;;5.10;99.90;;;;;;5105328;28;20031;-56
2021/03/22 01:45:08;;;;;;;42.97;4.80;;;5.10;99.90;;;;;;5109174;28;20020;-56
2021/03/22 01:47:35;;;;;;;26.90;4.15;;;5.10;99.90;;;;;;5103638;28;20011;-56
2021/03/22 01:50:08;;;;;;;33.25;4.50;;;5.20;99.90;;;;;;5106584;27;20028;-57
2021/03/22 01:52:35;;;;;;;36.30;7.07;;;5.10;99.90;;;;;;5112598;27;20424;-56
2021/03/22 01:55:02;;;;;;;30.95;4.82;;;5.10;99.90;;;;;;5117056;27;20023;-56
2021/03/22 01:57:38;;;;;;;37.22;4.60;;;5.20;99.90;;;;;;5109134;27;20020;-53
2021/03/22 02:00:24;;;;;;;40.15;6.00;;;5.10;99.90;;;;;;5109759;27;20070;-54
2021/03/22 02:03:01;;;;;;;49.78;6.63;;;5.20;99.90;;;;;;5109293;27;20080;-57
2021/03/22 02:05:28;;;;;;;31.20;4.88;;;5.20;99.90;;;;;;5114415;27;20020;-57
2021/03/22 02:08:03;;;;;;;30.15;5.15;;;5.20;99.90;;;;;;5110091;27;20035;-55
2021/03/22 02:10:28;;;;;;;;;;;5.30;99.90;;;;;;5102795;28;20053;-56
2021/03/22 02:12:54;;;;;;;31.75;4.32;;;5.30;99.90;;;;;;5109909;27;19908;-57
2021/03/22 02:15:20;;;;;;;27.58;4.72;;;5.20;99.90;;;;;;5112332;27;20032;-55
2021/03/22 02:18:30;;;;;;;40.75;5.25;;;5.20;99.90;;;;;;5117482;27;20031;-55
2021/03/22 02:21:12;;;;;;;40.20;5.25;;;5.20;99.90;;;;;;5091885;27;20441;-54
2021/03/22 02:24:20;;;;;;;31.67;4.68;;;5.20;99.90;;;;;;5114567;27;20030;-54
2021/03/22 02:26:54;;;;;;;35.78;4.35;;;5.30;99.90;;;;;;5113519;27;20027;-53
2021/03/22 02:29:25;;;;;;;;;;;5.20;99.90;;;;;;5111600;28;20020;-53
2021/03/22 02:32:10;;;;;;;30.33;6.40;;;5.30;99.90;;;;;;5114499;27;19907;-55
2021/03/22 02:34:48;;;;;;;37.10;5.00;;;5.20;99.90;;;;;;5112381;27;20023;-57
2021/03/22 02:37:20;;;;;;;33.45;5.72;;;5.20;99.90;;;;;;5112971;27;20035;-56
2021/03/22 02:40:00;;;;;;;44.65;8.68;;;5.20;99.90;;;;;;5119015;27;20110;-57
2021/03/22 02:42:29;;;;;;;27.33;4.25;;;5.20;99.90;;;;;;5116327;27;20035;-53
2021/03/22 02:44:55;;;;;;;41.58;6.50;;;5.20;99.90;;;;;;5113517;27;20070;-56
2021/03/22 02:47:26;;;;;;;26.50;4.13;;;5.20;99.90;;;;;;5111689;27;20055;-53
2021/03/22 02:49:54;;;;;;;39.42;5.10;;;5.20;99.90;;;;;;5108518;27;20547;-56
2021/03/22 02:52:50;;;;;;;43.60;4.93;;;5.20;99.90;;;;;;5112373;27;20035;-56
2021/03/22 02:55:44;;;;;;;29.17;5.07;;;5.20;99.90;;;;;;5111161;28;20032;-58
2021/03/22 02:58:13;;;;;;;34.65;4.22;;;5.30;99.90;;;;;;5108452;27;20115;-57
2021/03/22 03:01:03;;;;;;;34.00;4.40;;;5.20;99.90;;;;;;5094830;28;20031;-55
2021/03/22 03:03:30;;;;;;;42.35;4.72;;;5.20;99.90;;;;;;5108682;28;20028;-56
2021/03/22 03:05:56;;;;;;;43.92;5.80;;;5.20;99.90;;;;;;5111731;28;20047;-56
2021/03/22 03:08:32;;;;;;;43.92;5.20;;;5.20;99.90;;;;;;5113416;27;20479;-57
2021/03/22 03:10:58;;;;;;;48.88;5.47;;;5.20;99.90;;;;;;5112932;27;20029;-56
2021/03/22 03:13:24;;;;;;;36.53;7.03;;;5.20;99.90;;;;;;5107294;27;20040;-54
2021/03/22 03:15:49;;;;;;;33.38;4.60;;;5.30;99.90;;;;;;5112033;27;20035;-58
2021/03/22 03:18:15;;;;;;;30.08;3.95;;;5.20;99.90;;;;;;5109628;27;20038;-56
2021/03/22 03:20:40;;;;;;;37.42;4.30;;;5.20;99.90;;;;;;5118200;27;20058;-54
2021/03/22 03:23:06;;;;;;;31.77;5.00;;;5.20;99.90;;;;;;5105673;27;20024;-55
2021/03/22 03:25:32;;;;;;;32.53;4.30;;;5.20;99.90;;;;;;5108934;27;20494;-56
2021/03/22 03:27:58;;;;;;;35.33;5.75;;;5.20;99.90;;;;;;5110111;27;20065;-54
2021/03/22 03:30:27;;;;;;;31.40;5.05;;;5.20;99.90;;;;;;5108421;27;20115;-56
2021/03/22 03:32:53;;;;;;;44.40;6.70;;;5.20;99.90;;;;;;5110681;27;20051;-55
2021/03/22 03:35:24;;;;;;;49.53;5.65;;;5.20;99.90;;;;;;5112229;27;20411;-56
2021/03/22 03:37:50;;;;;;;43.28;6.55;;;5.10;99.90;;;;;;5108953;27;20024;-55
2021/03/22 03:40:31;;;;;;;48.65;6.18;;;5.10;99.90;;;;;;5123302;27;20056;-54
2021/03/22 03:42:58;;;;;;;33.65;5.80;;;5.10;99.90;;;;;;5105614;27;20031;-54
2021/03/22 03:45:27;;;;;;;38.17;5.95;;;5.10;99.90;;;;;;5105660;27;20063;-54
2021/03/22 03:47:52;;;;;;;29.63;5.72;;;5.10;99.90;;;;;;5112768;27;20015;-57
2021/03/22 03:50:23;;;;;;;39.83;6.20;;;5.20;99.90;;;;;;5114804;27;20073;-55
2021/03/22 03:52:48;;;;;;;31.88;5.57;;;5.10;99.90;;;;;;5115555;27;20041;-52
2021/03/22 03:55:15;;;;;;;31.30;5.82;;;5.20;99.90;;;;;;5117618;27;20035;-53
2021/03/22 03:57:48;;;;;;;44.00;6.82;;;5.20;99.90;;;;;;5111881;27;20034;-52
2021/03/22 04:00:33;;;;;;;40.15;5.55;;;5.10;99.90;;;;;;5118226;27;20063;-56
2021/03/22 04:03:33;;;;;;;47.10;8.05;;;5.10;99.90;;;;;;5118109;27;20067;-56
2021/03/22 04:06:17;;;;;;;39.63;7.13;;;5.10;99.90;;;;;;5106325;27;20394;-56
2021/03/22 04:08:48;;;;;;;49.07;6.70;;;5.00;99.90;;;;;;5112979;27;20027;-57
2021/03/22 04:11:20;;;;;;;42.25;7.25;;;5.00;99.90;;;;;;5105205;27;20489;-54
2021/03/22 04:13:46;;;;;;;37.30;8.55;;;5.00;99.90;;;;;;5108421;27;20036;-56
2021/03/22 04:16:14;;;;;;;43.25;8.27;;;5.00;99.90;;;;;;5106596;27;20035;-57
2021/03/22 04:18:40;;;;;;;44.05;8.45;;;5.00;99.90;;;;;;5101332;27;20110;-54
2021/03/22 04:21:09;;;;;;;47.83;10.15;;;4.90;99.90;;;;;;5108376;28;20520;-57
2021/03/22 04:23:35;;;;;;;37.55;8.75;;;4.90;99.90;;;;;;5105796;28;20059;-57
2021/03/22 04:26:02;;;;;;;42.30;8.88;;;4.90;99.90;;;;;;5110514;27;20020;-57
2021/03/22 04:28:29;;;;;;;46.22;8.68;;;4.80;99.90;;;;;;5110274;27;20093;-56
2021/03/22 04:30:55;;;;;;;47.05;10.30;;;4.80;99.90;;;;;;5107350;27;20515;-57
2021/03/22 04:33:21;;;;;;;41.25;10.25;;;4.80;99.90;;;;;;5103692;28;20110;-55
2021/03/22 04:35:46;;;;;;;36.30;8.38;;;4.80;99.90;;;;;;5111666;27;20031;-55
2021/03/22 04:38:12;;;;;;;35.75;7.65;;;4.80;99.90;;;;;;5116815;27;20028;-55
2021/03/22 04:40:37;;;;;;;43.83;7.65;;;4.80;99.90;;;;;;5113822;27;20031;-55
2021/03/22 04:43:03;;;;;;;39.83;8.27;;;4.70;99.90;;;;;;5101169;28;20031;-55
2021/03/22 04:45:30;;;;;;;49.15;8.35;;;4.70;99.90;;;;;;5112455;27;20019;-53
2021/03/22 04:47:57;;;;;;;45.83;7.63;;;4.70;99.90;;;;;;5104735;28;20526;-55
2021/03/22 04:50:24;;;;;;;29.30;8.73;;;4.70;99.90;;;;;;5107718;28;20476;-53
2021/03/22 04:52:50;;;;;;;38.95;6.47;;;4.70;99.90;;;;;;5105990;27;20042;-56
2021/03/22 04:55:19;;;;;;;40.92;7.78;;;4.70;99.90;;;;;;5121187;27;20031;-54
2021/03/22 04:57:45;;;;;;;26.08;7.10;;;4.70;99.90;;;;;;5111294;27;20027;-55
2021/03/22 05:00:19;;;;;;;42.30;7.50;;;4.80;99.90;;;;;;5108531;27;20057;-54
2021/03/22 05:02:45;;;;;;;41.00;10.25;;;4.80;99.90;;;;;;5104024;27;20084;-57
2021/03/22 05:05:11;;;;;;;31.40;7.68;;;4.80;99.90;;;;;;5110458;28;20047;-56
2021/03/22 05:07:37;;;;;;;31.63;7.72;;;4.70;99.90;;;;;;5106996;28;20031;-54
2021/03/22 05:10:05;;;;;;;34.88;7.28;;;4.80;99.90;;;;;;5111203;28;20024;-56
2021/03/22 05:12:31;;;;;;;49.45;9.13;;;4.80;99.90;;;;;;5112315;27;20036;-56
2021/03/22 05:14:56;;;;;;;40.70;9.45;;;4.70;99.90;;;;;;5114172;27;20374;-54
2021/03/22 05:17:22;;;;;;;34.13;7.47;;;4.70;99.90;;;;;;5102736;28;20126;-53
2021/03/22 05:19:47;;;;;;;44.55;7.10;;;4.70;99.90;;;;;;5105824;28;20102;-55
2021/03/22 05:22:13;;;;;;;45.90;9.25;;;4.70;99.90;;;;;;5103469;28;20031;-56
2021/03/22 05:24:39;;;;;;;43.88;7.00;;;4.70;99.90;;;;;;5110950;28;20035;-55
2021/03/22 05:27:05;;;;;;;33.80;7.15;;;4.80;99.90;;;;;;5105952;28;20035;-55
2021/03/22 05:29:30;;;;;;;33.63;7.15;;;4.80;99.90;;;;;;5113629;28;20017;-56
2021/03/22 05:31:56;;;;;;;37.83;8.20;;;4.80;99.90;;;;;;5111126;28;20028;-56
2021/03/22 05:34:23;;;;;;;44.47;8.70;;;4.80;99.90;;;;;;5114900;28;20400;-54
2021/03/22 05:36:49;;;;;;;43.20;10.40;;;4.80;99.90;;;;;;5103504;28;20586;-55
2021/03/22 05:39:16;;;;;;;33.45;9.68;;;4.80;99.90;;;;;;5110639;28;20036;-59
2021/03/22 05:42:07;;;;;;;42.65;10.80;;;4.80;99.90;;;;;;5105735;28;20102;-55
2021/03/22 05:44:57;;;;;;;45.20;9.95;;;4.80;99.90;;;;;;5102751;28;20022;-56
2021/03/22 05:47:35;;;;;;;37.10;9.02;;;4.80;99.90;;;;;;5105825;28;20019;-54
2021/03/22 05:50:21;;;;;;;37.30;7.85;;;4.80;99.90;;;;;;5100745;28;20482;-56
2021/03/22 05:53:20;;;;;;;42.15;9.80;;;4.80;99.90;;;;;;5108842;28;20031;-56
2021/03/22 05:55:55;;;;;;;39.13;8.07;;;4.80;99.90;;;;;;5105274;28;20030;-58
2021/03/22 05:58:56;;;;;;;39.10;8.05;;;4.80;99.90;;;;;;5104335;28;20027;-57
2021/03/22 06:01:43;;;;;;;40.67;9.15;;;4.80;99.90;;;;;;5101195;28;20027;-56
2021/03/22 06:04:33;;;;;;;36.30;7.93;;;4.80;99.90;;;;;;5105980;28;20489;-56
2021/03/22 06:06:58;;;;;;;34.22;9.52;;;4.90;99.90;;;;;;5110954;28;20023;-56
2021/03/22 06:09:53;;;;;;;37.55;8.93;;;4.80;99.90;;;;;;5103147;28;20557;-54
2021/03/22 06:12:24;;;;;;;25.05;7.93;;;4.90;99.90;;;;;;5082101;28;20413;-55
2021/03/22 06:15:14;;;;;;;37.63;8.48;;;4.90;99.90;;;;;;5105555;28;20024;-55
2021/03/22 06:17:58;;;;;;;42.88;10.65;;;5.00;99.90;;;;;;5105130;28;20538;-57
2021/03/22 06:20:29;;;;;;;37.83;8.73;;;4.90;99.90;;;;;;5106865;28;20450;-56
2021/03/22 06:23:12;;;;;;;47.88;9.80;;;4.90;99.90;;;;;;5107538;28;20476;-56
2021/03/22 06:25:38;;;;;;;45.55;10.25;;;4.90;99.90;;;;;;5110087;28;20019;-57
2021/03/22 06:28:27;;;;;;;33.70;9.25;;;5.00;99.90;;;;;;5109437;28;20019;-57
2021/03/22 06:31:12;;;;;;;40.35;9.73;;;4.90;99.90;;;;;;5108952;28;20439;-56
2021/03/22 06:33:42;;;;;;;36.80;9.43;;;5.00;99.90;;;;;;5110756;28;20064;-57
2021/03/22 06:36:09;;;;;;;39.92;10.68;;;5.00;99.90;;;;;;5112655;27;20023;-58
2021/03/22 06:38:35;;;;;;;34.65;8.93;;;5.10;99.90;;;;;;5106864;27;20389;-59
2021/03/22 06:41:29;;;;;;;36.78;9.73;;;5.10;99.90;;;;;;5108800;27;20032;-57
2021/03/22 06:44:00;;;;;;;40.97;9.68;;;5.20;99.90;;;;;;5113729;27;20508;-57
2021/03/22 06:46:27;;;;;;;41.38;10.10;;;5.20;99.90;;;;;;5110179;27;20094;-58
2021/03/22 06:49:42;;;;;;;44.13;11.73;;;5.20;99.90;;;;;;5102644;27;20050;-60
2021/03/22 06:52:19;;;;;;;43.45;12.70;;;5.20;99.90;;;;;;5108196;27;20455;-59
2021/03/22 06:54:46;;;;;;;45.03;11.55;;;5.10;99.90;;;;;;5106621;27;20023;-58
2021/03/22 06:57:13;;;;;;;38.92;9.82;;;5.10;99.90;;;;;;5103033;27;20033;-57
2021/03/22 07:00:04;;;;;;;50.38;10.75;;;5.10;99.90;;;;;;5112312;27;20084;-58
2021/03/22 07:02:49;;;;;;;45.15;11.30;;;5.10;99.90;;;;;;5108849;27;20031;-56
2021/03/22 07:05:39;;;;;;;40.35;11.75;;;5.10;99.90;;;;;;5106688;28;20028;-58
2021/03/22 07:08:13;;;;;;;42.42;11.00;;;5.10;99.90;;;;;;5106516;27;20022;-57
2021/03/22 07:10:42;;;;;;;36.92;10.68;;;5.10;99.90;;;;;;5109389;27;20381;-57
2021/03/22 07:13:13;;;;;;;46.65;11.75;;;5.10;99.90;;;;;;5109998;27;20028;-60
2021/03/22 07:15:39;;;;;;;43.70;11.45;;;5.20;99.90;;;;;;5106787;27;20069;-57
2021/03/22 07:18:31;;;;;;;44.28;11.70;;;5.20;99.90;;;;;;5109465;27;20023;-56
2021/03/22 07:21:00;;;;;;;43.00;14.38;;;5.20;99.90;;;;;;5111767;27;20114;-56
2021/03/22 07:23:26;;;;;;;42.53;13.10;;;5.20;99.90;;;;;;5111932;27;20043;-56
2021/03/22 07:26:02;;;;;;;45.08;12.95;;;5.20;99.90;;;;;;5108632;28;20488;-55
2021/03/22 07:28:55;;;;;;;39.05;14.25;;;5.20;99.90;;;;;;5101008;28;20024;-57
2021/03/22 07:31:46;;;;;;;39.38;13.15;;;5.30;99.90;;;;;;5107632;27;20711;-57
2021/03/22 07:34:38;;;;;;;42.17;13.93;;;5.40;99.90;;;;;;5103371;27;20130;-56
2021/03/22 07:37:20;;;;;;;48.50;14.50;;;5.50;99.90;;;;;;5109779;27;20062;-57
2021/03/22 07:39:58;;;;;;;46.53;14.57;;;5.60;99.90;;;;;;5109161;27;20055;-59
2021/03/22 07:42:37;;;;;;;51.88;15.02;;;5.70;99.90;;;;;;5111759;27;20123;-57
2021/03/22 07:45:27;;;;;;;54.92;14.70;;;5.70;99.90;;;;;;5106042;28;20091;-57
2021/03/22 07:48:14;;;;;;;44.20;16.65;;;5.80;99.90;;;;;;5108173;27;20032;-57
2021/03/22 07:51:06;;;;;;;44.63;16.02;;;5.70;99.90;;;;;;5110928;27;20197;-57
2021/03/22 07:53:42;;;;;;;47.63;16.98;;;5.70;99.90;;;;;;5089128;28;20027;-57
2021/03/22 07:56:24;;;;;;;51.78;18.48;;;5.70;99.90;;;;;;5099681;27;20028;-55
2021/03/22 07:58:57;;;;;;;42.90;18.58;;;5.80;99.90;;;;;;5111465;28;20015;-52
2021/03/22 08:01:44;;;;;;;50.63;19.10;;;5.80;99.90;;;;;;5107423;28;20067;-59
2021/03/22 08:04:41;;;;;;;56.30;20.88;;;5.80;99.90;;;;;;5110339;27;20015;-57
2021/03/22 08:07:12;;;;;;;52.28;20.27;;;5.80;99.90;;;;;;5112006;27;20046;-56
2021/03/22 08:09:57;;;;;;;55.17;20.63;;;5.80;99.90;;;;;;5107110;27;20024;-56
2021/03/22 08:12:48;;;;;;;60.33;20.10;;;5.90;99.90;;;;;;5111811;27;20076;-54
2021/03/22 08:15:35;;;;;;;53.63;21.38;;;5.90;99.90;;;;;;5114020;27;20127;-57
2021/03/22 08:18:19;;;;;;;61.90;22.33;;;6.00;99.90;;;;;;5108005;28;20085;-57
2021/03/22 08:21:20;;;;;;;62.47;23.63;;;6.10;99.90;;;;;;5103064;28;20118;-56
2021/03/22 08:24:22;;;;;;;67.90;25.08;;;6.10;99.90;;;;;;5106170;27;20073;-60
2021/03/22 08:27:05;;;;;;;61.78;22.52;;;6.20;99.90;;;;;;5088261;27;20405;-54
2021/03/22 08:29:35;;;;;;;56.50;23.70;;;6.20;99.90;;;;;;5112364;27;20030;-56
2021/03/22 08:32:19;;;;;;;67.18;24.35;;;6.10;99.90;;;;;;5108061;28;20030;-59
2021/03/22 08:35:04;;;;;;;60.65;25.55;;;6.10;99.90;;;;;;5103281;28;20035;-57
2021/03/22 08:37:39;;;;;;;65.95;25.20;;;6.20;99.90;;;;;;5106540;27;20020;-59
2021/03/22 08:40:37;;;;;;;61.92;25.10;;;6.20;99.90;;;;;;5107460;28;20500;-53
2021/03/22 08:43:06;;;;;;;51.53;23.65;;;6.30;99.90;;;;;;5112884;27;20062;-56
2021/03/22 08:45:37;;;;;;;52.30;24.40;;;6.40;99.90;;;;;;5108535;27;20031;-54
2021/03/22 08:48:19;;;;;;;52.63;21.48;;;6.40;99.90;;;;;;5122053;27;20019;-53
2021/03/22 08:50:45;;;;;;;53.58;22.30;;;6.40;99.90;;;;;;5100427;28;20023;-55
2021/03/22 08:53:14;;;;;;;60.50;24.67;;;6.60;99.90;;;;;;5113587;27;20375;-56
2021/03/22 08:55:46;;;;;;;58.42;24.23;;;6.60;99.90;;;;;;5105890;27;20123;-54
2021/03/22 08:58:48;;;;;;;59.55;24.20;;;6.60;99.90;;;;;;5107796;28;20423;-56
2021/03/22 09:01:33;;;;;;;66.28;24.55;;;6.60;99.90;;;;;;5028333;28;20125;-60
2021/03/22 09:04:27;;;;;;;53.92;19.27;;;6.60;99.90;;;;;;5081002;28;20023;-51
2021/03/22 09:07:11;;;;;;;39.75;19.75;;;6.80;99.90;;;;;;5096376;27;20543;-60
2021/03/22 09:09:44;;;;;;;43.22;18.83;;;6.90;99.90;;;;;;5108769;27;20076;-54
2021/03/22 09:12:47;;;;;;;43.85;18.88;;;7.10;99.90;;;;;;5109674;27;20034;-54
2021/03/22 09:15:32;;;;;;;50.28;19.65;;;7.20;99.90;;;;;;5103555;28;20028;-56
2021/03/22 09:18:01;;;;;;;39.05;17.20;;;7.20;99.90;;;;;;5091695;28;20571;-54
2021/03/22 09:20:52;;;;;;;40.20;14.88;;;7.10;99.90;;;;;;5112754;27;20122;-56
2021/03/22 09:23:29;;;;;;;33.10;12.63;;;7.00;99.90;;;;;;5105218;28;20145;-53
2021/03/22 09:25:56;;;;;;;30.42;12.77;;;7.00;99.90;;;;;;5104904;28;20035;-52
2021/03/22 09:28:25;;;;;;;24.83;11.38;;;7.00;99.90;;;;;;5108619;28;20028;-53
2021/03/22 09:31:02;;;;;;;27.15;10.00;;;6.90;99.90;;;;;;5112252;28;20512;-58
2021/03/22 09:34:01;;;;;;;33.35;9.88;;;6.90;99.90;;;;;;5102976;28;20035;-53
2021/03/22 09:36:42;;;;;;;42.15;13.95;;;6.90;99.90;;;;;;5107778;28;20429;-56
2021/03/22 09:39:14;;;;;;;24.70;10.80;;;6.90;99.90;;;;;;5104560;28;20077;-53
2021/03/22 09:41:52;;;;;;;29.73;11.70;;;7.10;99.90;;;;;;5107071;28;20354;-59
2021/03/22 09:44:19;;;;;;;21.17;10.57;;;7.10;99.90;;;;;;5104952;28;20202;-55
2021/03/22 09:46:46;;;;;;;27.00;11.50;;;7.10;99.90;;;;;;5110086;28;20032;-57
2021/03/22 09:49:21;;;;;;;26.63;10.85;;;7.10;99.90;;;;;;5110893;28;20114;-59
2021/03/22 09:51:48;;;;;;;;;;;7.20;99.90;;;;;;5118649;28;20508;-57
2021/03/22 09:54:37;;;;;;;28.20;11.15;;;7.20;99.90;;;;;;5105096;28;19918;-57
2021/03/22 09:57:08;;;;;;;24.17;10.40;;;7.20;99.90;;;;;;5108892;28;20493;-59
2021/03/22 09:59:38;;;;;;;28.95;10.90;;;7.30;99.90;;;;;;5109931;28;20129;-57
2021/03/22 10:02:35;;;;;;;31.52;11.10;;;7.30;99.90;;;;;;5107762;28;20516;-58
2021/03/22 10:05:25;;;;;;;18.70;9.82;;;7.40;99.90;;;;;;5107945;28;20030;-57
2021/03/22 10:08:14;;;;;;;21.58;10.00;;;7.30;99.90;;;;;;5108729;28;20019;-58
2021/03/22 10:10:52;;;;;;;20.50;8.60;;;7.30;99.90;;;;;;5098975;27;20453;-59
2021/03/22 10:13:40;;;;;;;17.15;9.02;;;7.20;99.90;;;;;;5111531;27;20028;-59
2021/03/22 10:16:17;;;;;;;25.00;9.65;;;7.30;99.90;;;;;;5114596;27;20050;-58
2021/03/22 10:19:13;;;;;;;22.48;7.72;;;7.20;99.90;;;;;;5114052;27;20012;-56
2021/03/22 10:21:44;;;;;;;16.23;7.05;;;7.20;99.90;;;;;;5100140;27;20436;-56
2021/03/22 10:24:35;;;;;;;25.02;6.30;;;7.10;99.90;;;;;;5108540;27;20094;-54
2021/03/22 10:27:02;;;;;;;15.95;5.50;;;7.10;99.90;;;;;;5112556;27;20111;-56
2021/03/22 10:29:32;;;;;;;31.48;6.85;;;7.10;99.90;;;;;;5106253;28;20500;-56
2021/03/22 10:32:07;;;;;;;23.00;5.22;;;7.10;99.90;;;;;;5106388;27;20024;-56
2021/03/22 10:35:14;;;;;;;20.88;5.97;;;7.10;99.90;;;;;;5110405;27;20407;-57
2021/03/22 10:37:51;;;;;;;18.23;5.50;;;7.20;99.90;;;;;;5105981;27;20046;-53
2021/03/22 10:40:38;;;;;;;17.27;4.65;;;7.20;99.90;;;;;;5096468;28;20027;-56
2021/03/22 10:43:04;;;;;;;15.70;4.53;;;7.20;99.90;;;;;;5113920;27;20027;-56
2021/03/22 10:45:33;;;;;;;22.23;5.15;;;7.20;99.90;;;;;;5114262;27;20399;-53
2021/03/22 10:48:01;;;;;;;20.00;6.70;;;7.20;99.90;;;;;;5108441;28;20099;-53
2021/03/22 10:50:31;;;;;;;23.65;5.47;;;7.20;99.90;;;;;;5112911;28;20063;-55
2021/03/22 10:53:15;;;;;;;18.17;4.50;;;7.20;99.90;;;;;;5111688;27;20110;-57
2021/03/22 10:55:46;;;;;;;14.90;4.57;;;7.30;99.90;;;;;;5116268;27;20020;-57
2021/03/22 10:58:35;;;;;;;14.65;4.13;;;7.20;99.90;;;;;;5118248;27;20112;-55
2021/03/22 11:01:05;;;;;;;12.60;4.65;;;7.30;99.90;;;;;;5105872;27;20051;-63
2021/03/22 11:03:31;;;;;;;14.68;5.53;;;7.40;99.90;;;;;;5111717;27;20609;-58
2021/03/22 11:05:58;;;;;;;18.63;5.22;;;7.40;99.90;;;;;;5111588;27;20370;-56
2021/03/22 11:08:52;;;;;;;18.42;6.28;;;7.50;99.90;;;;;;5100983;27;20054;-56
2021/03/22 11:11:19;;;;;;;22.63;6.28;;;7.50;99.90;;;;;;5114041;27;20047;-58
2021/03/22 11:13:48;;;;;;;15.82;5.60;;;7.60;99.90;;;;;;5109046;27;20026;-57
2021/03/22 11:16:34;;;;;;;11.95;5.50;;;7.60;99.90;;;;;;5109732;28;20038;-57
2021/03/22 11:19:27;;;;;;;18.20;5.43;;;7.60;99.90;;;;;;5111576;27;20020;-57
2021/03/22 11:21:55;;;;;;;21.42;6.13;;;7.60;99.90;;;;;;5090549;27;20032;-59
2021/03/22 11:24:42;;;;;;;25.80;7.45;;;7.70;99.90;;;;;;5108129;27;20016;-57
2021/03/22 11:27:11;;;;;;;15.70;6.38;;;7.80;99.90;;;;;;5106707;27;20028;-57
2021/03/22 11:30:04;;;;;;;16.92;6.40;;;7.90;99.90;;;;;;5111280;27;20110;-57
2021/03/22 11:32:32;;;;;;;26.55;7.78;;;7.80;99.90;;;;;;5101125;27;20112;-57
2021/03/22 11:35:10;;;;;;;17.35;6.43;;;7.80;99.90;;;;;;5110515;27;20038;-56
2021/03/22 11:37:35;;;;;;;14.00;6.60;;;7.80;99.90;;;;;;5104868;27;20039;-57
2021/03/22 11:40:10;;;;;;;15.50;7.63;;;7.80;99.90;;;;;;5109082;27;20028;-57
2021/03/22 11:42:58;;;;;;;18.73;7.07;;;7.80;99.90;;;;;;5108181;27;20031;-57
2021/03/22 11:45:37;;;;;;;15.73;5.68;;;7.80;99.90;;;;;;5113255;27;20069;-59
2021/03/22 11:48:05;;;;;;;13.70;5.65;;;7.80;99.90;;;;;;5107346;27;20493;-57
2021/03/22 11:50:41;;;;;;;23.55;7.78;;;7.80;99.90;;;;;;5110881;27;20027;-56
2021/03/22 11:53:14;;;;;;;16.50;6.13;;;7.90;99.90;;;;;;5107728;27;20570;-56
2021/03/22 11:56:17;;;;;;;16.08;5.43;;;7.80;99.90;;;;;;5111651;27;20027;-57
2021/03/22 11:58:43;;;;;;;17.20;5.63;;;7.90;99.90;;;;;;5075126;27;20512;-59
2021/03/22 12:01:21;;;;;;;19.38;7.40;;;8.00;99.90;;;;;;5109101;27;20059;-59
2021/03/22 12:03:48;;;;;;;14.45;6.05;;;8.10;99.90;;;;;;5113850;27;20171;-59
2021/03/22 12:06:17;;;;;;;9.55;4.65;;;8.00;99.90;;;;;;5103753;27;20019;-58
2021/03/22 12:08:44;;;;;;;14.05;4.78;;;8.10;99.90;;;;;;5118379;27;20020;-57
2021/03/22 12:11:18;;;;;;;11.25;4.35;;;8.10;99.90;;;;;;5108858;27;20032;-57
2021/03/22 12:13:47;;;;;;;13.68;3.60;;;8.20;99.90;;;;;;5109296;27;20051;-56
2021/03/22 12:16:19;;;;;;;9.77;3.40;;;8.30;99.90;;;;;;5103126;28;20039;-58
2021/03/22 12:18:45;;;;;;;13.82;3.60;;;8.40;99.90;;;;;;5103162;27;20036;-57
2021/03/22 12:21:13;;;;;;;10.50;3.97;;;8.50;99.90;;;;;;5104696;27;20074;-60
2021/03/22 12:23:39;;;;;;;11.30;3.78;;;8.40;99.90;;;;;;5116767;27;20026;-54
2021/03/22 12:26:06;;;;;;;7.95;2.78;;;8.30;99.90;;;;;;5106747;27;20034;-53
2021/03/22 12:28:31;;;;;;;22.52;5.30;;;8.30;99.90;;;;;;5111879;27;20156;-59
2021/03/22 12:30:58;;;;;;;13.32;2.95;;;8.30;99.90;;;;;;5111198;28;20020;-56
2021/03/22 12:33:27;;;;;;;9.95;3.08;;;8.30;99.90;;;;;;5099767;28;20042;-59
2021/03/22 12:35:53;;;;;;;7.75;3.20;;;8.20;99.90;;;;;;5102970;27;20030;-57
2021/03/22 12:38:19;;;;;;;8.20;3.13;;;8.20;99.90;;;;;;5090217;28;20486;-54
2021/03/22 12:40:46;;;;;;;11.73;3.40;;;8.20;99.90;;;;;;5109185;27;20084;-55
2021/03/22 12:43:22;;;;;;;16.52;3.72;;;8.20;99.90;;;;;;5106725;27;20038;-55
2021/03/22 12:45:49;;;;;;;11.00;3.33;;;8.30;99.90;;;;;;5107510;27;20070;-56
2021/03/22 12:48:15;;;;;;;16.10;4.45;;;8.30;99.90;;;;;;5110794;27;20457;-58
2021/03/22 12:50:41;;;;;;;18.52;3.30;;;8.30;99.90;;;;;;5106667;27;20020;-54
2021/03/22 12:53:09;;;;;;;18.83;5.18;;;8.40;99.90;;;;;;5106844;27;20032;-54
2021/03/22 12:55:35;;;;;;;10.68;3.05;;;8.40;99.90;;;;;;5106730;28;20035;-55
2021/03/22 12:58:05;;;;;;;5.70;2.85;;;8.40;99.90;;;;;;5109551;28;20051;-57
2021/03/22 13:00:32;;;;;;;13.13;2.97;;;8.30;99.90;;;;;;5112128;27;20070;-56
2021/03/22 13:02:57;;;;;;;7.05;2.90;;;8.30;99.90;;;;;;5114485;27;20027;-56
2021/03/22 13:05:28;;;;;;;14.73;3.97;;;8.40;99.90;;;;;;5113556;27;20042;-55
2021/03/22 13:07:54;;;;;;;16.02;4.07;;;8.30;99.90;;;;;;5105171;28;20548;-59
2021/03/22 13:10:22;;;;;;;8.40;3.55;;;8.20;99.90;;;;;;5103694;28;20056;-57
2021/03/22 13:12:49;;;;;;;14.15;4.22;;;8.20;99.90;;;;;;5111354;27;20028;-54
2021/03/22 13:15:37;;;;;;;15.10;4.28;;;8.20;99.90;;;;;;5108519;28;20030;-54
2021/03/22 13:18:28;;;;;;;9.07;3.45;;;8.20;99.90;;;;;;5107648;28;20564;-57
2021/03/22 13:21:00;;;;;;;11.73;3.63;;;8.30;99.90;;;;;;5104738;27;20501;-53
2021/03/22 13:23:26;;;;;;;8.48;3.88;;;8.30;99.90;;;;;;5107861;28;20038;-56